sensor_id;sensor_type;location;lat;lon;timestamp;temperature;humidity
52725;DHT22;38621;52.830;6.914;2023-06-10T00:02:05;17.90;99.90
52725;DHT22;38621;52.830;6.914;2023-06-10T00:04:31;17.80;99.90
52725;DHT22;38621;52.830;6.914;2023-06-10T00:06:57;17.80;99.90
52725;DHT22;38621;52.830;6.914;2023-06-10T00:09:22;17.80;99.90
52725;DHT22;38621;52.830;6.914;2023-06-10T00:11:48;17.70;99.90
52725;DHT22;38621;52.830;6.914;2023-06-10T00:14:14;17.60;99.90
52725;DHT22;38621;52.830;6.914;2023-06-10T00:16:39;17.60;99.90
52725;DHT22;38621;52.830;6.914;2023-06-10T00:19:05;17.60;99.90
52725;DHT22;38621;52.830;6.914;2023-06-10T00:21:34;17.60;99.90
52725;DHT22;38621;52.830;6.914;2023-06-10T00:24:08;17.60;99.90
52725;DHT22;38621;52.830;6.914;2023-06-10T00:26:40;17.60;99.90
52725;DHT22;38621;52.830;6.914;2023-06-10T00:29:06;17.60;99.90
52725;DHT22;38621;52.830;6.914;2023-06-10T00:31:33;17.60;99.90
52725;DHT22;38621;52.830;6.914;2023-06-10T00:33:59;17.60;99.90
52725;DHT22;38621;52.830;6.914;2023-06-10T00:36:25;17.50;99.90
52725;DHT22;38621;52.830;6.914;2023-06-10T00:38:51;17.50;99.90
52725;DHT22;38621;52.830;6.914;2023-06-10T00:41:16;17.50;99.90
52725;DHT22;38621;52.830;6.914;2023-06-10T00:43:42;17.50;99.90
52725;DHT22;38621;52.830;6.914;2023-06-10T00:46:08;17.40;99.90
52725;DHT22;38621;52.830;6.914;2023-06-10T00:48:35;17.40;99.90
52725;DHT22;38621;52.830;6.914;2023-06-10T00:51:01;17.40;99.90
52725;DHT22;38621;52.830;6.914;2023-06-10T00:53:27;17.30;99.90
52725;DHT22;38621;52.830;6.914;2023-06-10T00:55:53;17.20;99.90
52725;DHT22;38621;52.830;6.914;2023-06-10T00:58:19;17.10;99.90
52725;DHT22;38621;52.830;6.914;2023-06-10T01:00:45;17.00;99.90
52725;DHT22;38621;52.830;6.914;2023-06-10T01:03:12;16.90;99.90
52725;DHT22;38621;52.830;6.914;2023-06-10T01:05:38;16.80;99.90
52725;DHT22;38621;52.830;6.914;2023-06-10T01:08:15;16.80;99.90
52725;DHT22;38621;52.830;6.914;2023-06-10T01:10:53;16.70;99.90
52725;DHT22;38621;52.830;6.914;2023-06-10T01:13:22;16.60;99.90
52725;DHT22;38621;52.830;6.914;2023-06-10T01:15:50;16.50;99.90
52725;DHT22;38621;52.830;6.914;2023-06-10T01:18:17;16.40;99.90
52725;DHT22;38621;52.830;6.914;2023-06-10T01:20:43;16.30;99.90
52725;DHT22;38621;52.830;6.914;2023-06-10T01:23:10;16.20;99.90
52725;DHT22;38621;52.830;6.914;2023-06-10T01:25:39;16.10;99.90
52725;DHT22;38621;52.830;6.914;2023-06-10T01:28:12;16.10;99.90
52725;DHT22;38621;52.830;6.914;2023-06-10T01:30:46;16.00;99.90
52725;DHT22;38621;52.830;6.914;2023-06-10T01:33:18;16.00;99.90
52725;DHT22;38621;52.830;6.914;2023-06-10T01:35:44;15.90;99.90
52725;DHT22;38621;52.830;6.914;2023-06-10T01:38:13;15.80;99.90
52725;DHT22;38621;52.830;6.914;2023-06-10T01:40:40;15.80;99.90
52725;DHT22;38621;52.830;6.914;2023-06-10T01:43:06;15.70;99.90
52725;DHT22;38621;52.830;6.914;2023-06-10T01:45:32;15.60;99.90
52725;DHT22;38621;52.830;6.914;2023-06-10T01:47:57;15.50;99.90
52725;DHT22;38621;52.830;6.914;2023-06-10T01:50:23;15.50;99.90
52725;DHT22;38621;52.830;6.914;2023-06-10T01:52:49;15.40;99.90
52725;DHT22;38621;52.830;6.914;2023-06-10T01:55:14;15.40;99.90
52725;DHT22;38621;52.830;6.914;2023-06-10T01:57:40;15.30;99.90
52725;DHT22;38621;52.830;6.914;2023-06-10T02:00:06;15.30;99.90
52725;DHT22;38621;52.830;6.914;2023-06-10T02:02:33;15.30;99.90
52725;DHT22;38621;52.830;6.914;2023-06-10T02:04:58;15.20;99.90
52725;DHT22;38621;52.830;6.914;2023-06-10T02:07:24;15.20;99.90
52725;DHT22;38621;52.830;6.914;2023-06-10T02:09:50;15.20;99.90
52725;DHT22;38621;52.830;6.914;2023-06-10T02:12:16;15.20;99.90
52725;DHT22;38621;52.830;6.914;2023-06-10T02:14:41;15.00;99.90
52725;DHT22;38621;52.830;6.914;2023-06-10T02:17:07;15.00;99.90
52725;DHT22;38621;52.830;6.914;2023-06-10T02:19:38;14.90;99.90
52725;DHT22;38621;52.830;6.914;2023-06-10T02:22:08;14.90;99.90
52725;DHT22;38621;52.830;6.914;2023-06-10T02:24:35;14.80;99.90
52725;DHT22;38621;52.830;6.914;2023-06-10T02:27:00;14.80;99.90
52725;DHT22;38621;52.830;6.914;2023-06-10T02:29:26;14.80;99.90
52725;DHT22;38621;52.830;6.914;2023-06-10T02:31:52;14.70;99.90
52725;DHT22;38621;52.830;6.914;2023-06-10T02:34:18;14.60;99.90
52725;DHT22;38621;52.830;6.914;2023-06-10T02:36:44;14.50;99.90
52725;DHT22;38621;52.830;6.914;2023-06-10T02:39:09;14.40;99.90
52725;DHT22;38621;52.830;6.914;2023-06-10T02:41:35;14.40;99.90
52725;DHT22;38621;52.830;6.914;2023-06-10T02:44:01;14.40;99.90
52725;DHT22;38621;52.830;6.914;2023-06-10T02:46:27;14.40;99.90
52725;DHT22;38621;52.830;6.914;2023-06-10T02:48:54;14.40;99.90
52725;DHT22;38621;52.830;6.914;2023-06-10T02:51:20;14.40;99.90
52725;DHT22;38621;52.830;6.914;2023-06-10T02:53:46;14.30;99.90
52725;DHT22;38621;52.830;6.914;2023-06-10T02:56:13;14.20;99.90
52725;DHT22;38621;52.830;6.914;2023-06-10T02:58:39;14.20;99.90
52725;DHT22;38621;52.830;6.914;2023-06-10T03:01:04;14.10;99.90
52725;DHT22;38621;52.830;6.914;2023-06-10T03:03:30;14.10;99.90
52725;DHT22;38621;52.830;6.914;2023-06-10T03:05:56;14.00;99.90
52725;DHT22;38621;52.830;6.914;2023-06-10T03:08:22;14.10;99.90
52725;DHT22;38621;52.830;6.914;2023-06-10T03:10:47;14.10;99.90
52725;DHT22;38621;52.830;6.914;2023-06-10T03:13:13;14.10;99.90
52725;DHT22;38621;52.830;6.914;2023-06-10T03:15:40;14.00;99.90
52725;DHT22;38621;52.830;6.914;2023-06-10T03:18:06;14.00;99.90
52725;DHT22;38621;52.830;6.914;2023-06-10T03:20:32;14.00;99.90
52725;DHT22;38621;52.830;6.914;2023-06-10T03:23:02;14.00;99.90
52725;DHT22;38621;52.830;6.914;2023-06-10T03:25:28;14.00;99.90
52725;DHT22;38621;52.830;6.914;2023-06-10T03:27:54;14.00;99.90
52725;DHT22;38621;52.830;6.914;2023-06-10T03:30:19;13.90;99.90
52725;DHT22;38621;52.830;6.914;2023-06-10T03:32:45;13.80;99.90
52725;DHT22;38621;52.830;6.914;2023-06-10T03:35:11;13.80;99.90
52725;DHT22;38621;52.830;6.914;2023-06-10T03:37:37;13.80;99.90
52725;DHT22;38621;52.830;6.914;2023-06-10T03:40:03;13.80;99.90
52725;DHT22;38621;52.830;6.914;2023-06-10T03:42:29;13.80;99.90
52725;DHT22;38621;52.830;6.914;2023-06-10T03:44:55;13.70;99.90
52725;DHT22;38621;52.830;6.914;2023-06-10T03:47:21;13.80;99.90
52725;DHT22;38621;52.830;6.914;2023-06-10T03:49:47;13.80;99.90
52725;DHT22;38621;52.830;6.914;2023-06-10T03:52:13;13.80;99.90
52725;DHT22;38621;52.830;6.914;2023-06-10T03:54:38;13.90;99.90
52725;DHT22;38621;52.830;6.914;2023-06-10T03:57:04;13.90;99.90
52725;DHT22;38621;52.830;6.914;2023-06-10T03:59:31;13.90;99.90
52725;DHT22;38621;52.830;6.914;2023-06-10T04:01:57;14.00;99.90
52725;DHT22;38621;52.830;6.914;2023-06-10T04:04:23;14.00;99.90
52725;DHT22;38621;52.830;6.914;2023-06-10T04:06:48;14.00;99.90
52725;DHT22;38621;52.830;6.914;2023-06-10T04:09:14;13.90;99.90
52725;DHT22;38621;52.830;6.914;2023-06-10T04:11:41;13.90;99.90
52725;DHT22;38621;52.830;6.914;2023-06-10T04:14:07;14.00;99.90
52725;DHT22;38621;52.830;6.914;2023-06-10T04:16:33;14.00;99.90
52725;DHT22;38621;52.830;6.914;2023-06-10T04:19:00;14.00;99.90
52725;DHT22;38621;52.830;6.914;2023-06-10T04:21:27;14.10;99.90
52725;DHT22;38621;52.830;6.914;2023-06-10T04:23:53;14.20;99.90
52725;DHT22;38621;52.830;6.914;2023-06-10T04:26:19;14.20;99.90
52725;DHT22;38621;52.830;6.914;2023-06-10T04:28:44;14.30;99.90
52725;DHT22;38621;52.830;6.914;2023-06-10T04:31:10;14.40;99.90
52725;DHT22;38621;52.830;6.914;2023-06-10T04:33:36;14.50;99.90
52725;DHT22;38621;52.830;6.914;2023-06-10T04:36:02;14.50;99.90
52725;DHT22;38621;52.830;6.914;2023-06-10T04:38:28;14.60;99.90
52725;DHT22;38621;52.830;6.914;2023-06-10T04:40:53;14.70;99.90
52725;DHT22;38621;52.830;6.914;2023-06-10T04:43:19;14.80;99.90
52725;DHT22;38621;52.830;6.914;2023-06-10T04:45:45;14.90;99.90
52725;DHT22;38621;52.830;6.914;2023-06-10T04:48:11;14.90;99.90
52725;DHT22;38621;52.830;6.914;2023-06-10T04:50:37;15.10;99.90
52725;DHT22;38621;52.830;6.914;2023-06-10T04:53:03;15.20;99.90
52725;DHT22;38621;52.830;6.914;2023-06-10T04:55:28;15.30;99.90
52725;DHT22;38621;52.830;6.914;2023-06-10T04:57:54;15.40;99.90
52725;DHT22;38621;52.830;6.914;2023-06-10T05:00:20;15.50;99.90
52725;DHT22;38621;52.830;6.914;2023-06-10T05:02:46;15.60;99.90
52725;DHT22;38621;52.830;6.914;2023-06-10T05:05:16;15.70;99.90
52725;DHT22;38621;52.830;6.914;2023-06-10T05:07:42;15.80;99.90
52725;DHT22;38621;52.830;6.914;2023-06-10T05:10:08;15.90;99.90
52725;DHT22;38621;52.830;6.914;2023-06-10T05:12:34;16.00;99.90
52725;DHT22;38621;52.830;6.914;2023-06-10T05:15:00;16.10;99.90
52725;DHT22;38621;52.830;6.914;2023-06-10T05:17:25;16.20;99.90
52725;DHT22;38621;52.830;6.914;2023-06-10T05:19:51;16.20;99.90
52725;DHT22;38621;52.830;6.914;2023-06-10T05:22:17;16.30;99.90
52725;DHT22;38621;52.830;6.914;2023-06-10T05:24:44;16.40;99.90
52725;DHT22;38621;52.830;6.914;2023-06-10T05:27:10;16.50;99.90
52725;DHT22;38621;52.830;6.914;2023-06-10T05:29:36;16.60;99.90
52725;DHT22;38621;52.830;6.914;2023-06-10T05:32:01;16.60;99.90
52725;DHT22;38621;52.830;6.914;2023-06-10T05:34:32;16.70;99.90
52725;DHT22;38621;52.830;6.914;2023-06-10T05:36:57;16.80;99.90
52725;DHT22;38621;52.830;6.914;2023-06-10T05:39:23;16.90;99.90
52725;DHT22;38621;52.830;6.914;2023-06-10T05:41:49;17.00;99.90
52725;DHT22;38621;52.830;6.914;2023-06-10T05:44:14;17.00;99.90
52725;DHT22;38621;52.830;6.914;2023-06-10T05:46:40;17.10;99.90
52725;DHT22;38621;52.830;6.914;2023-06-10T05:49:06;17.20;99.90
52725;DHT22;38621;52.830;6.914;2023-06-10T05:51:32;17.30;99.90
52725;DHT22;38621;52.830;6.914;2023-06-10T05:53:57;17.30;99.90
52725;DHT22;38621;52.830;6.914;2023-06-10T05:56:23;17.40;99.90
52725;DHT22;38621;52.830;6.914;2023-06-10T05:58:49;17.40;99.90
52725;DHT22;38621;52.830;6.914;2023-06-10T06:01:15;17.50;99.90
52725;DHT22;38621;52.830;6.914;2023-06-10T06:03:41;17.60;99.90
52725;DHT22;38621;52.830;6.914;2023-06-10T06:06:06;17.70;99.90
52725;DHT22;38621;52.830;6.914;2023-06-10T06:08:32;17.80;99.90
52725;DHT22;38621;52.830;6.914;2023-06-10T06:10:58;17.90;99.90
52725;DHT22;38621;52.830;6.914;2023-06-10T06:13:24;18.00;99.90
52725;DHT22;38621;52.830;6.914;2023-06-10T06:15:50;18.10;99.90
52725;DHT22;38621;52.830;6.914;2023-06-10T06:18:16;18.10;99.90
52725;DHT22;38621;52.830;6.914;2023-06-10T06:20:41;18.20;99.90
52725;DHT22;38621;52.830;6.914;2023-06-10T06:23:07;18.20;99.90
52725;DHT22;38621;52.830;6.914;2023-06-10T06:25:35;18.30;99.90
52725;DHT22;38621;52.830;6.914;2023-06-10T06:28:02;18.40;99.90
52725;DHT22;38621;52.830;6.914;2023-06-10T06:30:27;18.40;99.90
52725;DHT22;38621;52.830;6.914;2023-06-10T06:32:53;18.50;99.90
52725;DHT22;38621;52.830;6.914;2023-06-10T06:35:19;18.50;99.90
52725;DHT22;38621;52.830;6.914;2023-06-10T06:37:44;18.60;99.90
52725;DHT22;38621;52.830;6.914;2023-06-10T06:40:11;18.60;99.90
52725;DHT22;38621;52.830;6.914;2023-06-10T06:42:36;18.70;99.90
52725;DHT22;38621;52.830;6.914;2023-06-10T06:45:02;18.80;99.90
52725;DHT22;38621;52.830;6.914;2023-06-10T06:47:28;18.90;99.90
52725;DHT22;38621;52.830;6.914;2023-06-10T06:49:54;18.90;99.90
52725;DHT22;38621;52.830;6.914;2023-06-10T06:52:19;19.00;99.90
52725;DHT22;38621;52.830;6.914;2023-06-10T06:54:45;19.20;99.90
52725;DHT22;38621;52.830;6.914;2023-06-10T06:57:11;19.30;99.90
52725;DHT22;38621;52.830;6.914;2023-06-10T06:59:36;19.40;99.90
52725;DHT22;38621;52.830;6.914;2023-06-10T07:02:03;19.50;99.90
52725;DHT22;38621;52.830;6.914;2023-06-10T07:04:29;19.60;99.90
52725;DHT22;38621;52.830;6.914;2023-06-10T07:06:54;19.60;99.90
52725;DHT22;38621;52.830;6.914;2023-06-10T07:09:20;19.70;99.90
52725;DHT22;38621;52.830;6.914;2023-06-10T07:11:46;19.80;99.90
52725;DHT22;38621;52.830;6.914;2023-06-10T07:14:11;19.90;99.90
52725;DHT22;38621;52.830;6.914;2023-06-10T07:16:37;19.90;99.90
52725;DHT22;38621;52.830;6.914;2023-06-10T07:19:03;20.00;99.90
52725;DHT22;38621;52.830;6.914;2023-06-10T07:21:30;20.00;99.90
52725;DHT22;38621;52.830;6.914;2023-06-10T07:23:56;20.20;99.90
52725;DHT22;38621;52.830;6.914;2023-06-10T07:26:24;20.30;99.90
52725;DHT22;38621;52.830;6.914;2023-06-10T07:28:51;20.40;99.90
52725;DHT22;38621;52.830;6.914;2023-06-10T07:31:17;20.40;99.90
52725;DHT22;38621;52.830;6.914;2023-06-10T07:33:43;20.50;99.90
52725;DHT22;38621;52.830;6.914;2023-06-10T07:36:09;20.60;99.90
52725;DHT22;38621;52.830;6.914;2023-06-10T07:38:35;20.60;99.90
52725;DHT22;38621;52.830;6.914;2023-06-10T07:41:01;20.60;99.90
52725;DHT22;38621;52.830;6.914;2023-06-10T07:43:27;20.70;99.90
52725;DHT22;38621;52.830;6.914;2023-06-10T07:45:52;20.80;99.90
52725;DHT22;38621;52.830;6.914;2023-06-10T07:48:18;20.90;99.90
52725;DHT22;38621;52.830;6.914;2023-06-10T07:50:44;21.00;99.90
52725;DHT22;38621;52.830;6.914;2023-06-10T07:53:10;21.10;99.90
52725;DHT22;38621;52.830;6.914;2023-06-10T07:55:35;21.20;99.90
52725;DHT22;38621;52.830;6.914;2023-06-10T07:58:01;21.20;99.90
52725;DHT22;38621;52.830;6.914;2023-06-10T08:00:27;21.30;99.90
52725;DHT22;38621;52.830;6.914;2023-06-10T08:02:53;21.40;99.90
52725;DHT22;38621;52.830;6.914;2023-06-10T08:05:18;21.50;99.90
52725;DHT22;38621;52.830;6.914;2023-06-10T08:07:44;21.50;99.90
52725;DHT22;38621;52.830;6.914;2023-06-10T08:10:10;21.60;99.90
52725;DHT22;38621;52.830;6.914;2023-06-10T08:12:36;21.70;99.90
52725;DHT22;38621;52.830;6.914;2023-06-10T08:15:02;21.90;99.90
52725;DHT22;38621;52.830;6.914;2023-06-10T08:17:29;21.90;99.90
52725;DHT22;38621;52.830;6.914;2023-06-10T08:19:55;22.00;99.90
52725;DHT22;38621;52.830;6.914;2023-06-10T08:22:21;22.10;99.90
52725;DHT22;38621;52.830;6.914;2023-06-10T08:24:46;22.20;99.90
52725;DHT22;38621;52.830;6.914;2023-06-10T08:27:12;22.30;99.90
52725;DHT22;38621;52.830;6.914;2023-06-10T08:29:38;22.30;99.90
52725;DHT22;38621;52.830;6.914;2023-06-10T08:32:04;22.40;99.90
52725;DHT22;38621;52.830;6.914;2023-06-10T08:34:30;22.60;99.90
52725;DHT22;38621;52.830;6.914;2023-06-10T08:36:56;22.80;99.90
52725;DHT22;38621;52.830;6.914;2023-06-10T08:39:22;23.00;99.90
52725;DHT22;38621;52.830;6.914;2023-06-10T08:44:36;23.10;99.90
52725;DHT22;38621;52.830;6.914;2023-06-10T08:47:08;23.10;99.90
52725;DHT22;38621;52.830;6.914;2023-06-10T08:49:40;23.30;99.90
52725;DHT22;38621;52.830;6.914;2023-06-10T08:52:07;23.50;99.90
52725;DHT22;38621;52.830;6.914;2023-06-10T08:54:35;23.70;99.90
52725;DHT22;38621;52.830;6.914;2023-06-10T08:57:05;23.80;99.90
52725;DHT22;38621;52.830;6.914;2023-06-10T08:59:34;24.00;99.90
52725;DHT22;38621;52.830;6.914;2023-06-10T09:02:00;24.10;99.90
52725;DHT22;38621;52.830;6.914;2023-06-10T09:04:27;24.30;99.90
52725;DHT22;38621;52.830;6.914;2023-06-10T09:06:54;24.40;99.90
52725;DHT22;38621;52.830;6.914;2023-06-10T09:09:21;24.60;99.90
52725;DHT22;38621;52.830;6.914;2023-06-10T09:11:48;24.80;99.90
52725;DHT22;38621;52.830;6.914;2023-06-10T09:14:13;25.00;99.90
52725;DHT22;38621;52.830;6.914;2023-06-10T09:16:40;25.10;99.90
52725;DHT22;38621;52.830;6.914;2023-06-10T09:19:07;25.20;99.90
52725;DHT22;38621;52.830;6.914;2023-06-10T09:21:35;25.30;99.90
52725;DHT22;38621;52.830;6.914;2023-06-10T09:24:01;25.30;99.90
52725;DHT22;38621;52.830;6.914;2023-06-10T09:26:30;25.30;99.90
52725;DHT22;38621;52.830;6.914;2023-06-10T09:29:06;25.50;99.90
52725;DHT22;38621;52.830;6.914;2023-06-10T09:31:38;25.60;99.90
52725;DHT22;38621;52.830;6.914;2023-06-10T09:34:11;25.70;99.90
52725;DHT22;38621;52.830;6.914;2023-06-10T09:36:37;25.80;99.90
52725;DHT22;38621;52.830;6.914;2023-06-10T09:39:04;25.90;99.90
52725;DHT22;38621;52.830;6.914;2023-06-10T09:41:40;26.00;99.90
52725;DHT22;38621;52.830;6.914;2023-06-10T09:44:16;26.20;99.90
52725;DHT22;38621;52.830;6.914;2023-06-10T09:46:44;26.20;99.90
52725;DHT22;38621;52.830;6.914;2023-06-10T09:49:10;26.30;99.90
52725;DHT22;38621;52.830;6.914;2023-06-10T09:51:36;26.40;99.90
52725;DHT22;38621;52.830;6.914;2023-06-10T09:54:03;26.60;99.90
52725;DHT22;38621;52.830;6.914;2023-06-10T09:56:36;26.80;99.90
52725;DHT22;38621;52.830;6.914;2023-06-10T09:59:03;26.90;99.90
52725;DHT22;38621;52.830;6.914;2023-06-10T10:01:30;27.00;99.90
52725;DHT22;38621;52.830;6.914;2023-06-10T10:03:57;27.10;99.90
52725;DHT22;38621;52.830;6.914;2023-06-10T10:06:23;27.10;99.90
52725;DHT22;38621;52.830;6.914;2023-06-10T10:08:50;27.30;99.90
52725;DHT22;38621;52.830;6.914;2023-06-10T10:11:20;27.40;99.90
52725;DHT22;38621;52.830;6.914;2023-06-10T10:13:48;27.60;99.90
52725;DHT22;38621;52.830;6.914;2023-06-10T10:16:20;27.80;99.90
52725;DHT22;38621;52.830;6.914;2023-06-10T10:18:51;27.90;99.90
52725;DHT22;38621;52.830;6.914;2023-06-10T10:21:25;28.00;99.90
52725;DHT22;38621;52.830;6.914;2023-06-10T10:24:02;28.20;99.90
52725;DHT22;38621;52.830;6.914;2023-06-10T10:26:31;28.20;99.90
52725;DHT22;38621;52.830;6.914;2023-06-10T10:29:19;28.20;99.90
52725;DHT22;38621;52.830;6.914;2023-06-10T10:31:46;28.40;99.90
52725;DHT22;38621;52.830;6.914;2023-06-10T10:34:21;28.50;99.90
52725;DHT22;38621;52.830;6.914;2023-06-10T10:36:49;28.60;99.90
52725;DHT22;38621;52.830;6.914;2023-06-10T10:39:15;28.60;99.90
52725;DHT22;38621;52.830;6.914;2023-06-10T10:41:42;28.80;99.90
52725;DHT22;38621;52.830;6.914;2023-06-10T10:44:08;28.70;99.90
52725;DHT22;38621;52.830;6.914;2023-06-10T10:46:53;28.90;99.90
52725;DHT22;38621;52.830;6.914;2023-06-10T10:49:20;29.00;99.90
52725;DHT22;38621;52.830;6.914;2023-06-10T10:51:58;29.10;99.90
52725;DHT22;38621;52.830;6.914;2023-06-10T10:54:32;29.20;99.90
52725;DHT22;38621;52.830;6.914;2023-06-10T10:57:16;29.30;99.90
52725;DHT22;38621;52.830;6.914;2023-06-10T11:00:00;29.50;99.50
52725;DHT22;38621;52.830;6.914;2023-06-10T11:04:57;29.60;99.60
52725;DHT22;38621;52.830;6.914;2023-06-10T11:07:25;29.70;99.90
52725;DHT22;38621;52.830;6.914;2023-06-10T11:10:07;29.90;99.90
52725;DHT22;38621;52.830;6.914;2023-06-10T11:15:12;30.10;99.50
52725;DHT22;38621;52.830;6.914;2023-06-10T11:31:24;30.80;97.30
52725;DHT22;38621;52.830;6.914;2023-06-10T11:33:56;30.90;96.10
52725;DHT22;38621;52.830;6.914;2023-06-10T11:36:22;30.90;95.60
52725;DHT22;38621;52.830;6.914;2023-06-10T11:38:49;31.00;95.70
52725;DHT22;38621;52.830;6.914;2023-06-10T11:41:15;31.20;94.90
52725;DHT22;38621;52.830;6.914;2023-06-10T11:43:43;31.40;94.30
52725;DHT22;38621;52.830;6.914;2023-06-10T11:46:10;31.40;93.80
52725;DHT22;38621;52.830;6.914;2023-06-10T11:48:36;31.40;93.60
52725;DHT22;38621;52.830;6.914;2023-06-10T11:51:06;31.50;93.30
52725;DHT22;38621;52.830;6.914;2023-06-10T11:53:32;31.70;92.40
52725;DHT22;38621;52.830;6.914;2023-06-10T11:55:58;31.70;91.60
52725;DHT22;38621;52.830;6.914;2023-06-10T11:58:23;31.60;90.70
52725;DHT22;38621;52.830;6.914;2023-06-10T12:00:51;31.60;90.90
52725;DHT22;38621;52.830;6.914;2023-06-10T12:03:19;31.70;91.10
52725;DHT22;38621;52.830;6.914;2023-06-10T12:05:59;31.80;91.20
52725;DHT22;38621;52.830;6.914;2023-06-10T12:08:26;31.90;90.60
52725;DHT22;38621;52.830;6.914;2023-06-10T12:10:53;32.00;91.10
52725;DHT22;38621;52.830;6.914;2023-06-10T12:13:19;32.10;90.90
52725;DHT22;38621;52.830;6.914;2023-06-10T12:15:46;32.20;90.10
52725;DHT22;38621;52.830;6.914;2023-06-10T12:18:22;32.10;89.20
52725;DHT22;38621;52.830;6.914;2023-06-10T12:20:49;32.20;86.50
52725;DHT22;38621;52.830;6.914;2023-06-10T12:23:16;32.00;87.00
52725;DHT22;38621;52.830;6.914;2023-06-10T12:25:53;32.10;88.40
52725;DHT22;38621;52.830;6.914;2023-06-10T12:28:26;32.30;86.80
52725;DHT22;38621;52.830;6.914;2023-06-10T12:31:06;32.40;87.30
52725;DHT22;38621;52.830;6.914;2023-06-10T12:33:32;32.50;87.30
52725;DHT22;38621;52.830;6.914;2023-06-10T12:35:58;32.50;85.20
52725;DHT22;38621;52.830;6.914;2023-06-10T12:38:25;32.50;82.80
52725;DHT22;38621;52.830;6.914;2023-06-10T12:40:57;32.50;82.70
52725;DHT22;38621;52.830;6.914;2023-06-10T12:43:26;32.60;82.40
52725;DHT22;38621;52.830;6.914;2023-06-10T12:45:52;32.70;81.30
52725;DHT22;38621;52.830;6.914;2023-06-10T12:48:24;32.80;80.00
52725;DHT22;38621;52.830;6.914;2023-06-10T12:50:57;32.90;79.40
52725;DHT22;38621;52.830;6.914;2023-06-10T12:53:24;32.90;78.80
52725;DHT22;38621;52.830;6.914;2023-06-10T12:55:52;32.90;78.90
52725;DHT22;38621;52.830;6.914;2023-06-10T12:58:22;33.00;79.50
52725;DHT22;38621;52.830;6.914;2023-06-10T13:00:49;33.20;79.00
52725;DHT22;38621;52.830;6.914;2023-06-10T13:03:18;33.30;79.50
52725;DHT22;38621;52.830;6.914;2023-06-10T13:05:43;33.30;78.70
52725;DHT22;38621;52.830;6.914;2023-06-10T13:08:09;33.40;79.10
52725;DHT22;38621;52.830;6.914;2023-06-10T13:10:38;33.40;79.30
52725;DHT22;38621;52.830;6.914;2023-06-10T13:13:04;33.30;79.30
52725;DHT22;38621;52.830;6.914;2023-06-10T13:15:32;33.10;78.30
52725;DHT22;38621;52.830;6.914;2023-06-10T13:17:57;32.70;78.20
52725;DHT22;38621;52.830;6.914;2023-06-10T13:20:24;32.40;76.90
52725;DHT22;38621;52.830;6.914;2023-06-10T13:22:49;32.20;77.30
52725;DHT22;38621;52.830;6.914;2023-06-10T13:25:15;32.10;76.50
52725;DHT22;38621;52.830;6.914;2023-06-10T13:27:41;32.10;75.90
52725;DHT22;38621;52.830;6.914;2023-06-10T13:30:09;32.30;75.60
52725;DHT22;38621;52.830;6.914;2023-06-10T13:32:35;32.60;75.00
52725;DHT22;38621;52.830;6.914;2023-06-10T13:35:01;32.80;75.30
52725;DHT22;38621;52.830;6.914;2023-06-10T13:37:28;33.00;74.90
52725;DHT22;38621;52.830;6.914;2023-06-10T13:39:54;33.30;75.80
52725;DHT22;38621;52.830;6.914;2023-06-10T13:42:20;33.60;76.30
52725;DHT22;38621;52.830;6.914;2023-06-10T13:44:47;33.80;74.30
52725;DHT22;38621;52.830;6.914;2023-06-10T13:47:16;33.90;73.20
52725;DHT22;38621;52.830;6.914;2023-06-10T13:49:43;34.10;72.30
52725;DHT22;38621;52.830;6.914;2023-06-10T13:52:08;34.30;72.40
52725;DHT22;38621;52.830;6.914;2023-06-10T13:54:34;34.30;71.60
52725;DHT22;38621;52.830;6.914;2023-06-10T13:57:03;34.20;70.00
52725;DHT22;38621;52.830;6.914;2023-06-10T13:59:29;33.90;69.80
52725;DHT22;38621;52.830;6.914;2023-06-10T14:01:55;33.50;69.20
52725;DHT22;38621;52.830;6.914;2023-06-10T14:04:22;33.10;68.90
52725;DHT22;38621;52.830;6.914;2023-06-10T14:06:48;32.80;69.00
52725;DHT22;38621;52.830;6.914;2023-06-10T14:09:14;32.50;69.10
52725;DHT22;38621;52.830;6.914;2023-06-10T14:11:40;32.30;69.60
52725;DHT22;38621;52.830;6.914;2023-06-10T14:14:05;32.20;69.90
52725;DHT22;38621;52.830;6.914;2023-06-10T14:16:31;32.10;69.80
52725;DHT22;38621;52.830;6.914;2023-06-10T14:18:57;31.90;68.70
52725;DHT22;38621;52.830;6.914;2023-06-10T14:21:23;31.70;68.60
52725;DHT22;38621;52.830;6.914;2023-06-10T14:23:48;31.60;69.80
52725;DHT22;38621;52.830;6.914;2023-06-10T14:26:15;31.60;69.60
52725;DHT22;38621;52.830;6.914;2023-06-10T14:28:41;31.50;70.20
52725;DHT22;38621;52.830;6.914;2023-06-10T14:31:07;31.50;70.80
52725;DHT22;38621;52.830;6.914;2023-06-10T14:33:33;31.40;70.90
52725;DHT22;38621;52.830;6.914;2023-06-10T14:35:59;31.40;70.80
52725;DHT22;38621;52.830;6.914;2023-06-10T14:38:25;31.40;70.20
52725;DHT22;38621;52.830;6.914;2023-06-10T14:40:51;31.50;70.40
52725;DHT22;38621;52.830;6.914;2023-06-10T14:43:17;31.60;71.00
52725;DHT22;38621;52.830;6.914;2023-06-10T14:45:43;31.80;71.20
52725;DHT22;38621;52.830;6.914;2023-06-10T14:48:10;32.50;70.60
52725;DHT22;38621;52.830;6.914;2023-06-10T14:50:37;33.40;70.60
52725;DHT22;38621;52.830;6.914;2023-06-10T14:53:03;34.40;71.10
52725;DHT22;38621;52.830;6.914;2023-06-10T14:55:29;35.20;71.10
52725;DHT22;38621;52.830;6.914;2023-06-10T14:57:54;35.70;70.90
52725;DHT22;38621;52.830;6.914;2023-06-10T15:00:22;36.10;70.50
52725;DHT22;38621;52.830;6.914;2023-06-10T15:02:49;36.40;70.30
52725;DHT22;38621;52.830;6.914;2023-06-10T15:05:15;36.60;69.60
52725;DHT22;38621;52.830;6.914;2023-06-10T15:07:42;36.70;69.90
52725;DHT22;38621;52.830;6.914;2023-06-10T15:10:08;37.10;70.00
52725;DHT22;38621;52.830;6.914;2023-06-10T15:12:35;37.30;69.60
52725;DHT22;38621;52.830;6.914;2023-06-10T15:15:01;37.60;68.80
52725;DHT22;38621;52.830;6.914;2023-06-10T15:17:27;37.80;67.30
52725;DHT22;38621;52.830;6.914;2023-06-10T15:19:53;37.90;66.90
52725;DHT22;38621;52.830;6.914;2023-06-10T15:22:19;38.00;67.60
52725;DHT22;38621;52.830;6.914;2023-06-10T15:24:44;38.10;66.80
52725;DHT22;38621;52.830;6.914;2023-06-10T15:27:10;38.30;65.10
52725;DHT22;38621;52.830;6.914;2023-06-10T15:29:36;38.40;62.70
52725;DHT22;38621;52.830;6.914;2023-06-10T15:32:02;38.60;61.90
52725;DHT22;38621;52.830;6.914;2023-06-10T15:34:27;38.90;61.30
52725;DHT22;38621;52.830;6.914;2023-06-10T15:36:53;39.30;61.00
52725;DHT22;38621;52.830;6.914;2023-06-10T15:39:19;39.50;61.00
52725;DHT22;38621;52.830;6.914;2023-06-10T15:41:45;39.60;60.20
52725;DHT22;38621;52.830;6.914;2023-06-10T15:44:11;39.50;60.10
52725;DHT22;38621;52.830;6.914;2023-06-10T15:46:37;39.50;60.10
52725;DHT22;38621;52.830;6.914;2023-06-10T15:49:03;39.60;60.10
52725;DHT22;38621;52.830;6.914;2023-06-10T15:51:29;39.70;59.30